Tim Quigg — WDB6570 — position and weather

sailwx.info

Track history (hours):
 
Tides and Currents Weather Stations Pressure Air Temp Water Temp Dewpoint Dewpoint Depression Visibility Wind Speed Wind Dir Waves Ship Positions

Tim Quigg

Owner: Harley Marine Services, Inc, Seattle, WA. More information available from US FCC via Universal Licensing System and Coast Guard Vessel Documentation Center.

Last reported at 2017-Jan-18 05:21 UTC. Time now 2017-Jan-24 21:30 UTC.
Position N 33°45' W 118°16'.

Type: Tug. MMSI: 366926740.

Date/timePositionNaut miles runAvg speedWind from/ knotsBaromVisibWave heightAir tempDewpointWater temp
2017-Jan-18 05:21N 33°45' W 118°16'1 0.7
2017-Jan-18 04:16N 33°45' W 118°16'0 0.6
2017-Jan-18 03:33N 33°45' W 118°16'3 1.0
2017-Jan-18 00:33N 33°43' W 118°13'0 0.0
2017-Jan-17 23:33N 33°43' W 118°13'1 1.2
2017-Jan-17 22:34N 33°43' W 118°14'3 2.5
2017-Jan-17 21:33N 33°45' W 118°17'1 1.1
2017-Jan-17 20:32N 33°44' W 118°16'0 0.0
2017-Jan-17 19:34N 33°44' W 118°16'0 0.0
2017-Jan-17 18:34N 33°44' W 118°16'0 0.0
2017-Jan-17 17:26N 33°44' W 118°16'0 0.0
2017-Jan-17 16:30N 33°44' W 118°16'3 2.8
2017-Jan-17 15:32N 33°45' W 118°12'3 2.9
2017-Jan-17 14:34N 33°44' W 118°16'0 0.3
2017-Jan-17 13:33N 33°43' W 118°16'1 0.7
2017-Jan-17 12:33N 33°44' W 118°17'1 0.8
2017-Jan-17 11:33N 33°43' W 118°16'3 2.4
2017-Jan-17 10:12N 33°45' W 118°12'0 0.0
2017-Jan-17 09:27N 33°45' W 118°12'2 1.7
2017-Jan-17 08:33N 33°47' W 118°13'4 1.7
2017-Jan-17 06:26N 33°44' W 118°16'3 0.6
2017-Jan-17 01:26N 33°45' W 118°13'0 0.0
2017-Jan-17 00:32N 33°45' W 118°13'1 1.0
2017-Jan-16 23:23N 33°44' W 118°12'3 0.1
2017-Jan-15 08:33N 33°46' W 118°16'0 0.0
2017-Jan-15 07:28N 33°46' W 118°16'2 1.8
2017-Jan-15 06:27N 33°44' W 118°16'0 0.0
2017-Jan-15 05:33N 33°44' W 118°16'0 0.2
2017-Jan-15 04:32N 33°44' W 118°16'0 0.2
2017-Jan-15 03:18N 33°43' W 118°16'1 0.8
2017-Jan-15 02:30N 33°44' W 118°16'2 1.5
2017-Jan-15 01:18N 33°45' W 118°16'0 0.6
2017-Jan-15 00:33N 33°45' W 118°16'2 1.9
2017-Jan-14 23:33N 33°43' W 118°16'0 0.5
2017-Jan-14 22:33N 33°44' W 118°16'0 0.0
2017-Jan-14 21:32N 33°44' W 118°16'0 0.0
2017-Jan-14 20:33N 33°44' W 118°16'0 0.0
2017-Jan-14 19:33N 33°44' W 118°16'1 0.7
2017-Jan-14 18:33N 33°44' W 118°16'3 2.4
2017-Jan-14 17:26N 33°44' W 118°12'3 3.1
2017-Jan-14 16:30N 33°43' W 118°16'  
2017-Jan-11 23:20N 33°46' W 118°13'  
2017-Jan-09 10:21N 33°44' W 118°10'5 5.0
2017-Jan-09 09:19N 33°45' W 118°16'2 1.2
2017-Jan-09 07:33N 33°43' W 118°16'1 0.7
2017-Jan-09 06:33N 33°44' W 118°16'0 0.0
2017-Jan-09 05:33N 33°44' W 118°16'0 0.0
2017-Jan-09 04:33N 33°44' W 118°16'1 1.2
2017-Jan-09 03:33N 33°43' W 118°15'0 0.1
2017-Jan-09 02:32N 33°43' W 118°15'1 0.2
2017-Jan-08 18:25N 33°44' W 118°16'3 0.6
2017-Jan-08 13:13N 33°46' W 118°13'0 0.3
2017-Jan-08 12:15N 33°45' W 118°13'3 4.2
2017-Jan-08 11:32N 33°44' W 118°10'5 3.8
2017-Jan-08 10:06N 33°45' W 118°16'2 2.8
2017-Jan-08 09:13N 33°46' W 118°14'  
Track history (hours):
 
Tides and Currents Weather Stations Pressure Air Temp Water Temp Dewpoint Dewpoint Depression Visibility Wind Speed Wind Dir Waves Ship Positions

Tim Quigg

Owner: Harley Marine Services, Inc, Seattle, WA. More information available from US FCC via Universal Licensing System and Coast Guard Vessel Documentation Center.

Last reported at 2017-Jan-18 05:21 UTC. Time now 2017-Jan-24 21:30 UTC.
Position N 33°45' W 118°16'.

Type: Tug. MMSI: 366926740.

Date/timePositionNaut miles runAvg speedWind from/ knotsBaromVisibWave heightAir tempDewpointWater temp
2017-Jan-18 05:21N 33°45' W 118°16'1 0.7
2017-Jan-18 04:16N 33°45' W 118°16'0 0.6
2017-Jan-18 03:33N 33°45' W 118°16'3 1.0
2017-Jan-18 00:33N 33°43' W 118°13'0 0.0
2017-Jan-17 23:33N 33°43' W 118°13'1 1.2
2017-Jan-17 22:34N 33°43' W 118°14'3 2.5
2017-Jan-17 21:33N 33°45' W 118°17'1 1.1
2017-Jan-17 20:32N 33°44' W 118°16'0 0.0
2017-Jan-17 19:34N 33°44' W 118°16'0 0.0
2017-Jan-17 18:34N 33°44' W 118°16'0 0.0
2017-Jan-17 17:26N 33°44' W 118°16'0 0.0
2017-Jan-17 16:30N 33°44' W 118°16'3 2.8
2017-Jan-17 15:32N 33°45' W 118°12'3 2.9
2017-Jan-17 14:34N 33°44' W 118°16'0 0.3
2017-Jan-17 13:33N 33°43' W 118°16'1 0.7
2017-Jan-17 12:33N 33°44' W 118°17'1 0.8
2017-Jan-17 11:33N 33°43' W 118°16'3 2.4
2017-Jan-17 10:12N 33°45' W 118°12'0 0.0
2017-Jan-17 09:27N 33°45' W 118°12'2 1.7
2017-Jan-17 08:33N 33°47' W 118°13'4 1.7
2017-Jan-17 06:26N 33°44' W 118°16'3 0.6
2017-Jan-17 01:26N 33°45' W 118°13'0 0.0
2017-Jan-17 00:32N 33°45' W 118°13'1 1.0
2017-Jan-16 23:23N 33°44' W 118°12'3 0.1
2017-Jan-15 08:33N 33°46' W 118°16'0 0.0
2017-Jan-15 07:28N 33°46' W 118°16'2 1.8
2017-Jan-15 06:27N 33°44' W 118°16'0 0.0
2017-Jan-15 05:33N 33°44' W 118°16'0 0.2
2017-Jan-15 04:32N 33°44' W 118°16'0 0.2
2017-Jan-15 03:18N 33°43' W 118°16'1 0.8
2017-Jan-15 02:30N 33°44' W 118°16'2 1.5
2017-Jan-15 01:18N 33°45' W 118°16'0 0.6
2017-Jan-15 00:33N 33°45' W 118°16'2 1.9
2017-Jan-14 23:33N 33°43' W 118°16'0 0.5
2017-Jan-14 22:33N 33°44' W 118°16'0 0.0
2017-Jan-14 21:32N 33°44' W 118°16'0 0.0
2017-Jan-14 20:33N 33°44' W 118°16'0 0.0
2017-Jan-14 19:33N 33°44' W 118°16'1 0.7
2017-Jan-14 18:33N 33°44' W 118°16'3 2.4
2017-Jan-14 17:26N 33°44' W 118°12'3 3.1
2017-Jan-14 16:30N 33°43' W 118°16'  
2017-Jan-11 23:20N 33°46' W 118°13'  
2017-Jan-09 10:21N 33°44' W 118°10'5 5.0
2017-Jan-09 09:19N 33°45' W 118°16'2 1.2
2017-Jan-09 07:33N 33°43' W 118°16'1 0.7
2017-Jan-09 06:33N 33°44' W 118°16'0 0.0
2017-Jan-09 05:33N 33°44' W 118°16'0 0.0
2017-Jan-09 04:33N 33°44' W 118°16'1 1.2
2017-Jan-09 03:33N 33°43' W 118°15'0 0.1
2017-Jan-09 02:32N 33°43' W 118°15'1 0.2
2017-Jan-08 18:25N 33°44' W 118°16'3 0.6
2017-Jan-08 13:13N 33°46' W 118°13'0 0.3
2017-Jan-08 12:15N 33°45' W 118°13'3 4.2
2017-Jan-08 11:32N 33°44' W 118°10'5 3.8
2017-Jan-08 10:06N 33°45' W 118°16'2 2.8
2017-Jan-08 09:13N 33°46' W 118°14'  

Dump ship's entire track history